createdAt,value
2019-05-17T00:01:27.037Z,31.53
2019-05-17T00:03:56.482Z,32.33
2019-05-17T00:06:27.502Z,31.07
2019-05-17T00:08:56.508Z,32.30
2019-05-17T00:11:27.350Z,36.50
2019-05-17T00:13:57.050Z,32.83
2019-05-17T00:16:26.813Z,31.50
2019-05-17T00:18:56.903Z,32.10
2019-05-17T00:21:27.476Z,30.57
2019-05-17T00:23:57.241Z,30.83
2019-05-17T00:26:26.947Z,31.00
2019-05-17T00:28:56.288Z,31.27
2019-05-17T00:31:26.302Z,35.10
2019-05-17T00:33:56.635Z,31.87
2019-05-17T00:36:26.961Z,32.47
2019-05-17T00:38:56.782Z,35.90
2019-05-17T00:41:26.917Z,35.27
2019-05-17T00:43:56.914Z,34.00
2019-05-17T00:46:26.669Z,34.43
2019-05-17T00:48:57.297Z,31.00
2019-05-17T00:51:27.485Z,32.00
2019-05-17T00:53:56.368Z,31.97
2019-05-17T00:56:26.634Z,31.57
2019-05-17T00:58:56.819Z,32.90
2019-05-17T01:01:27.051Z,32.10
2019-05-17T01:03:58.766Z,33.00
2019-05-17T01:06:27.729Z,33.57
2019-05-17T01:09:01.799Z,31.30
2019-05-17T01:11:27.188Z,31.83
2019-05-17T01:13:58.521Z,30.47
2019-05-17T01:16:27.232Z,32.10
2019-05-17T01:18:57.349Z,31.97
2019-05-17T01:21:26.433Z,28.03
2019-05-17T01:23:56.267Z,30.80
2019-05-17T01:26:26.720Z,31.53
2019-05-17T01:28:57.356Z,30.57
2019-05-17T01:31:26.661Z,28.07
2019-05-17T01:33:56.470Z,28.67
2019-05-17T01:36:26.382Z,27.63
2019-05-17T01:38:57.655Z,28.47
2019-05-17T01:41:26.653Z,26.90
2019-05-17T01:43:56.952Z,27.90
2019-05-17T01:46:26.510Z,28.97
2019-05-17T01:48:57.770Z,28.23
2019-05-17T01:51:26.398Z,29.40
2019-05-17T01:53:57.190Z,28.57
2019-05-17T01:56:26.248Z,29.83
2019-05-17T01:58:57.386Z,28.27
2019-05-17T02:01:27.576Z,27.37
2019-05-17T02:03:57.500Z,24.80
2019-05-17T02:06:27.087Z,27.80
2019-05-17T02:08:57.025Z,26.30
2019-05-17T02:11:26.940Z,24.90
2019-05-17T02:13:56.182Z,26.67
2019-05-17T02:16:26.756Z,27.43
2019-05-17T02:18:57.340Z,26.37
2019-05-17T02:21:27.452Z,25.40
2019-05-17T02:23:57.140Z,27.30
2019-05-17T02:26:26.651Z,24.47
2019-05-17T02:28:55.603Z,25.00
2019-05-17T02:31:24.939Z,23.70
2019-05-17T02:33:53.825Z,25.53
2019-05-17T02:36:22.934Z,25.20
2019-05-17T02:38:53.188Z,21.93
2019-05-17T02:41:22.743Z,24.20
2019-05-17T02:43:53.426Z,26.30
2019-05-17T02:46:23.035Z,22.67
2019-05-17T02:48:53.857Z,23.37
2019-05-17T02:51:23.766Z,25.77
2019-05-17T02:53:52.787Z,25.53
2019-05-17T02:56:23.046Z,23.43
2019-05-17T02:58:53.370Z,24.50
2019-05-17T03:01:23.123Z,22.60
2019-05-17T03:03:52.886Z,22.13
2019-05-17T03:06:22.754Z,21.93
2019-05-17T03:08:52.557Z,21.60
2019-05-17T03:11:22.630Z,23.00
2019-05-17T03:13:52.556Z,22.20
2019-05-17T03:16:23.608Z,21.03
2019-05-17T03:18:53.024Z,22.87
2019-05-17T03:21:22.945Z,21.47
2019-05-17T03:23:53.951Z,21.10
2019-05-17T03:26:23.076Z,20.03
2019-05-17T03:28:53.818Z,21.37
2019-05-17T03:31:26.247Z,19.10
2019-05-17T03:33:56.213Z,20.33
2019-05-17T03:36:26.492Z,21.60
2019-05-17T03:38:55.947Z,19.93
2019-05-17T03:41:28.903Z,20.90
2019-05-17T03:43:55.354Z,21.00
2019-05-17T03:46:24.345Z,19.17
2019-05-17T03:48:53.378Z,18.80
2019-05-17T03:51:23.289Z,19.90
2019-05-17T03:53:53.081Z,19.20
2019-05-17T03:56:22.562Z,19.00
2019-05-17T03:58:53.176Z,19.93
2019-05-17T04:01:23.226Z,20.87
2019-05-17T04:03:52.926Z,19.70
2019-05-17T04:06:23.808Z,18.40
2019-05-17T04:08:52.824Z,18.33
2019-05-17T04:11:31.056Z,19.90
2019-05-17T04:13:53.711Z,20.77
2019-05-17T04:16:23.831Z,20.10
2019-05-17T04:18:53.458Z,17.93
2019-05-17T04:21:23.469Z,17.87
2019-05-17T04:23:53.815Z,19.67
2019-05-17T04:26:23.014Z,18.03
2019-05-17T04:28:53.328Z,17.80
2019-05-17T04:31:22.859Z,17.27
2019-05-17T04:33:53.658Z,18.43
2019-05-17T04:36:22.722Z,18.30
2019-05-17T04:38:52.623Z,17.67
2019-05-17T04:41:39.709Z,16.00
2019-05-17T04:43:53.129Z,14.40
2019-05-17T04:46:25.080Z,16.60
2019-05-17T04:48:53.976Z,19.00
2019-05-17T04:51:23.461Z,15.73
2019-05-17T04:53:53.075Z,17.00
2019-05-17T04:56:22.817Z,15.17
2019-05-17T04:58:54.288Z,15.60
2019-05-17T05:01:23.736Z,15.23
2019-05-17T05:03:53.530Z,15.20
2019-05-17T05:06:23.474Z,17.00
2019-05-17T05:08:53.027Z,15.47
2019-05-17T05:11:23.317Z,15.30
2019-05-17T05:13:53.229Z,13.30
2019-05-17T05:16:22.615Z,14.23
2019-05-17T05:18:52.651Z,15.17
2019-05-17T05:21:23.004Z,13.47
2019-05-17T05:23:52.106Z,14.57
2019-05-17T05:26:22.256Z,15.30
2019-05-17T05:28:52.851Z,14.50
2019-05-17T05:31:22.781Z,13.00
2019-05-17T05:33:52.255Z,12.80
2019-05-17T05:36:22.105Z,12.43
2019-05-17T05:38:51.624Z,14.00
2019-05-17T05:41:22.422Z,13.10
2019-05-17T05:43:54.663Z,13.20
2019-05-17T05:46:24.043Z,13.70
2019-05-17T05:48:53.433Z,12.57
2019-05-17T05:51:23.116Z,11.40
2019-05-17T05:53:52.256Z,12.43
2019-05-17T05:56:21.973Z,12.03
2019-05-17T05:58:52.253Z,11.67
2019-05-17T06:01:21.982Z,13.23
2019-05-17T06:03:52.015Z,12.50
2019-05-17T06:06:21.572Z,11.23
2019-05-17T06:08:52.086Z,11.30
2019-05-17T06:11:21.631Z,12.03
2019-05-17T06:13:52.391Z,11.90
2019-05-17T06:16:22.763Z,10.83
2019-05-17T06:18:51.896Z,11.10
2019-05-17T06:21:22.680Z,10.30
2019-05-17T06:23:51.655Z,10.90
2019-05-17T06:26:23.495Z,10.10
2019-05-17T06:28:51.848Z,10.40
2019-05-17T06:31:20.842Z,10.20
2019-05-17T06:33:52.353Z,12.50
2019-05-17T06:36:21.708Z,9.67
2019-05-17T06:38:52.623Z,9.90
2019-05-17T06:41:21.637Z,10.07
2019-05-17T06:43:52.345Z,9.17
2019-05-17T06:46:21.984Z,10.83
2019-05-17T06:48:53.009Z,10.47
2019-05-17T06:51:22.054Z,8.90
2019-05-17T06:53:52.348Z,9.10
2019-05-17T06:56:22.915Z,9.13
2019-05-17T06:58:52.002Z,9.33
2019-05-17T07:01:20.820Z,8.73
2019-05-17T07:03:49.650Z,9.37
2019-05-17T07:06:21.540Z,10.87
2019-05-17T07:08:50.380Z,9.70
2019-05-17T07:11:21.057Z,9.27
2019-05-17T07:13:49.636Z,8.63
2019-05-17T07:16:19.685Z,8.70
2019-05-17T07:18:49.408Z,8.33
2019-05-17T07:21:20.374Z,9.00
2019-05-17T07:23:49.908Z,7.20
2019-05-17T07:26:19.739Z,10.90
2019-05-17T07:28:49.792Z,10.50
2019-05-17T07:31:20.361Z,10.90
2019-05-17T07:33:50.472Z,9.90
2019-05-17T07:36:19.737Z,10.03
2019-05-17T07:38:50.510Z,9.07
2019-05-17T07:41:20.367Z,9.20
2019-05-17T07:43:49.805Z,9.50
2019-05-17T07:46:20.638Z,9.80
2019-05-17T07:48:49.788Z,9.10
2019-05-17T07:51:19.503Z,9.00
2019-05-17T07:53:49.535Z,8.67
2019-05-17T07:56:19.939Z,8.33
2019-05-17T07:58:49.527Z,8.57
2019-05-17T08:01:20.458Z,9.37
2019-05-17T08:03:50.121Z,8.27
2019-05-17T08:06:19.927Z,9.60
2019-05-17T08:08:50.190Z,9.37
2019-05-17T08:11:24.583Z,9.73
2019-05-17T08:13:53.347Z,8.43
2019-05-17T08:16:25.899Z,9.70
2019-05-17T08:18:54.617Z,8.90
2019-05-17T08:21:23.415Z,9.00
2019-05-17T08:23:52.158Z,9.60
2019-05-17T08:26:21.164Z,10.60
2019-05-17T08:28:50.015Z,9.13
2019-05-17T08:31:20.195Z,10.27
2019-05-17T08:33:49.812Z,9.40
2019-05-17T08:36:20.099Z,8.70
2019-05-17T08:38:50.145Z,9.70
2019-05-17T08:41:20.821Z,9.00
2019-05-17T08:43:51.406Z,9.23
2019-05-17T08:46:20.640Z,9.87
2019-05-17T08:48:49.538Z,8.60
2019-05-17T08:51:19.691Z,9.30
2019-05-17T08:53:49.285Z,10.27
2019-05-17T08:56:20.375Z,10.33
2019-05-17T08:58:49.823Z,9.80
2019-05-17T09:01:19.553Z,9.90
2019-05-17T09:03:50.581Z,10.77
2019-05-17T09:06:20.004Z,9.73
2019-05-17T09:08:49.979Z,9.90
2019-05-17T09:11:19.686Z,8.93
2019-05-17T09:13:57.907Z,10.00
2019-05-17T09:16:19.690Z,9.50
2019-05-17T09:18:50.201Z,9.43
2019-05-17T09:21:21.911Z,9.27
2019-05-17T09:23:50.433Z,9.00
2019-05-17T09:26:20.017Z,9.10
2019-05-17T09:28:49.965Z,9.20
2019-05-17T09:31:20.407Z,9.40
2019-05-17T09:33:49.771Z,9.37
2019-05-17T09:36:20.445Z,11.10
2019-05-17T09:38:49.570Z,10.17
2019-05-17T09:41:20.079Z,7.93
2019-05-17T09:43:49.676Z,9.93
2019-05-17T09:46:19.653Z,10.07
2019-05-17T09:48:50.482Z,9.90
2019-05-17T09:51:19.682Z,10.17
2019-05-17T09:53:49.629Z,9.83
2019-05-17T09:56:20.642Z,9.00
2019-05-17T09:58:49.581Z,9.67
2019-05-17T10:01:19.603Z,10.10
2019-05-17T10:03:50.548Z,9.67
2019-05-17T10:06:20.091Z,10.10
2019-05-17T10:08:49.619Z,10.40
2019-05-17T10:11:20.331Z,10.90
2019-05-17T10:13:49.901Z,10.87
2019-05-17T10:16:20.333Z,12.43
2019-05-17T10:18:49.436Z,11.40
2019-05-17T10:21:19.872Z,11.80
2019-05-17T10:23:49.704Z,11.90
2019-05-17T10:26:19.780Z,11.67
2019-05-17T10:28:48.771Z,10.90
2019-05-17T10:31:19.655Z,9.90
2019-05-17T10:33:49.499Z,11.30
2019-05-17T10:36:20.199Z,9.70
2019-05-17T10:38:50.202Z,11.13
2019-05-17T10:41:20.008Z,12.23
2019-05-17T10:43:50.108Z,11.37
2019-05-17T10:46:20.583Z,10.70
2019-05-17T10:48:50.075Z,11.63
2019-05-17T10:51:20.237Z,11.33
2019-05-17T10:53:52.215Z,9.60
2019-05-17T10:56:23.506Z,9.63
2019-05-17T10:58:51.697Z,8.83
2019-05-17T11:01:20.545Z,8.50
2019-05-17T11:03:50.304Z,9.60
2019-05-17T11:06:19.765Z,9.00
2019-05-17T11:08:50.107Z,9.80
2019-05-17T11:11:20.040Z,9.20
2019-05-17T11:13:49.144Z,8.20
2019-05-17T11:16:17.941Z,9.20
2019-05-17T11:18:46.800Z,9.03
2019-05-17T11:21:15.615Z,10.00
2019-05-17T11:23:44.431Z,8.87
2019-05-17T11:26:13.323Z,9.70
2019-05-17T11:28:42.228Z,10.57
2019-05-17T11:31:11.070Z,9.47
2019-05-17T11:33:39.852Z,9.03
2019-05-17T11:36:08.715Z,8.20
2019-05-17T11:38:37.545Z,10.10
2019-05-17T11:41:20.707Z,10.47
2019-05-17T11:43:37.234Z,10.50
2019-05-17T11:46:06.309Z,10.43
2019-05-17T11:48:35.269Z,11.43
2019-05-17T11:51:04.096Z,10.30
2019-05-17T11:53:32.977Z,10.10
2019-05-17T11:56:01.861Z,11.63
2019-05-17T11:58:30.864Z,11.13
2019-05-17T12:00:59.747Z,10.23
2019-05-17T12:03:29.530Z,10.00
2019-05-17T12:05:58.414Z,10.50
2019-05-17T12:08:27.248Z,10.80
2019-05-17T12:10:56.137Z,9.50
2019-05-17T12:13:25.072Z,7.40
2019-05-17T12:15:53.862Z,8.67
2019-05-17T12:18:22.711Z,7.80
2019-05-17T12:20:51.612Z,7.47
2019-05-17T12:23:20.512Z,7.43
2019-05-17T12:25:49.297Z,7.03
2019-05-17T12:28:18.122Z,7.20
2019-05-17T12:30:47.317Z,6.40
2019-05-17T12:33:16.150Z,6.87
2019-05-17T12:35:44.991Z,5.70
2019-05-17T12:38:13.693Z,4.60
2019-05-17T12:40:42.562Z,5.50
2019-05-17T12:43:11.430Z,4.80
2019-05-17T12:45:40.531Z,4.50
2019-05-17T12:48:09.403Z,4.93
2019-05-17T12:50:38.262Z,5.60
2019-05-17T12:53:07.227Z,4.20
2019-05-17T12:55:36.094Z,4.73
2019-05-17T12:58:04.909Z,4.47
2019-05-17T13:00:33.793Z,4.60
2019-05-17T13:03:02.558Z,4.20
2019-05-17T13:05:31.404Z,4.70
2019-05-17T13:08:00.148Z,4.40
2019-05-17T13:10:29.068Z,5.27
2019-05-17T13:12:57.831Z,4.53
2019-05-17T13:15:26.721Z,4.00
2019-05-17T13:17:55.520Z,4.40
2019-05-17T13:20:24.343Z,3.77
2019-05-17T13:22:53.212Z,4.30
2019-05-17T13:25:22.189Z,4.50
2019-05-17T13:27:51.107Z,4.73
2019-05-17T13:30:21.313Z,5.50
2019-05-17T13:32:51.723Z,5.07
2019-05-17T13:35:20.723Z,4.73
2019-05-17T13:37:49.715Z,4.83
2019-05-17T13:40:18.795Z,4.37
2019-05-17T13:42:47.684Z,4.20
2019-05-17T13:45:16.889Z,2.93
2019-05-17T13:47:45.691Z,3.30
2019-05-17T13:50:16.262Z,3.20
2019-05-17T13:52:45.034Z,3.10
2019-05-17T13:55:14.079Z,2.73
2019-05-17T13:57:42.864Z,3.50
2019-05-17T14:00:12.200Z,3.10
2019-05-17T14:02:40.961Z,3.10
2019-05-17T14:05:09.956Z,3.10
2019-05-17T14:07:38.880Z,2.93
2019-05-17T14:10:24.561Z,2.97
2019-05-17T14:12:38.841Z,2.70
2019-05-17T14:15:09.006Z,2.67
2019-05-17T14:17:37.801Z,3.37
2019-05-17T14:20:07.516Z,2.37
2019-05-17T14:22:36.312Z,3.10
2019-05-17T14:25:06.814Z,2.80
2019-05-17T14:27:35.705Z,2.90
2019-05-17T14:30:06.728Z,2.83
2019-05-17T14:32:35.827Z,3.80
2019-05-17T14:35:05.475Z,4.80
2019-05-17T14:37:34.680Z,5.33
2019-05-17T14:40:05.162Z,4.43
2019-05-17T14:42:33.901Z,4.20
2019-05-17T14:45:02.841Z,5.17
2019-05-17T14:47:32.147Z,6.57
2019-05-17T14:50:00.924Z,6.90
2019-05-17T14:52:29.905Z,6.47
2019-05-17T14:54:58.838Z,6.27
2019-05-17T14:57:27.714Z,7.20
2019-05-17T14:59:56.781Z,6.73
2019-05-17T15:02:25.670Z,8.50
2019-05-17T15:04:54.533Z,8.00
2019-05-17T15:07:23.441Z,8.60
2019-05-17T15:09:52.370Z,8.77
2019-05-17T15:12:28.249Z,8.90
2019-05-17T15:14:51.868Z,9.17
2019-05-17T15:17:20.717Z,9.20
2019-05-17T15:19:51.455Z,8.37
2019-05-17T15:22:20.049Z,10.50
2019-05-17T15:24:49.276Z,10.37
2019-05-17T15:27:18.015Z,9.63
2019-05-17T15:29:46.844Z,9.60
2019-05-17T15:32:15.656Z,10.17
2019-05-17T15:34:44.465Z,10.10
2019-05-17T15:37:13.314Z,11.70
2019-05-17T15:39:42.081Z,10.57
2019-05-17T15:42:10.917Z,10.60
2019-05-17T15:44:39.706Z,11.33
2019-05-17T15:47:08.559Z,10.37
2019-05-17T15:49:37.353Z,12.23
2019-05-17T15:52:06.409Z,14.57
2019-05-17T15:54:35.071Z,13.20
2019-05-17T15:57:04.045Z,11.70
2019-05-17T15:59:32.833Z,12.73
2019-05-17T16:02:01.599Z,12.00
2019-05-17T16:04:30.449Z,12.77
2019-05-17T16:06:59.212Z,12.53
2019-05-17T16:09:27.990Z,12.03
2019-05-17T16:11:56.846Z,12.60
2019-05-17T16:14:25.665Z,11.17
2019-05-17T16:16:54.657Z,11.20
2019-05-17T16:19:23.450Z,11.63
2019-05-17T16:21:52.302Z,10.80
2019-05-17T16:24:21.092Z,12.57
2019-05-17T16:26:49.960Z,13.50
2019-05-17T16:29:18.853Z,13.30
2019-05-17T16:31:48.090Z,14.70
2019-05-17T16:34:16.879Z,14.23
2019-05-17T16:36:45.723Z,14.80
2019-05-17T16:39:14.599Z,14.60
2019-05-17T16:41:43.631Z,14.80
2019-05-17T16:44:14.632Z,15.20
2019-05-17T16:46:43.086Z,14.10
2019-05-17T16:49:11.960Z,13.60
2019-05-17T16:51:40.791Z,13.37
2019-05-17T16:54:10.054Z,13.33
2019-05-17T16:56:40.478Z,15.97
2019-05-17T16:59:12.766Z,11.70
2019-05-17T17:01:41.665Z,16.00
2019-05-17T17:04:10.481Z,12.03
2019-05-17T17:06:39.263Z,17.53
2019-05-17T17:09:08.291Z,12.80
2019-05-17T17:11:37.316Z,12.07
2019-05-17T17:14:06.683Z,11.57
2019-05-17T17:16:35.938Z,12.40
2019-05-17T17:19:04.965Z,11.57
2019-05-17T17:21:33.777Z,12.00
2019-05-17T17:24:02.570Z,12.37
2019-05-17T17:26:31.383Z,10.50
2019-05-17T17:29:00.307Z,10.40
2019-05-17T17:31:29.844Z,10.60
2019-05-17T17:33:58.720Z,11.23
2019-05-17T17:36:27.698Z,10.97
2019-05-17T17:38:56.781Z,9.67
2019-05-17T17:41:26.572Z,10.40
2019-05-17T17:43:58.731Z,11.13
2019-05-17T17:46:26.363Z,11.30
2019-05-17T17:48:55.164Z,13.23
2019-05-17T17:51:23.937Z,12.40
2019-05-17T17:53:52.832Z,12.60
2019-05-17T17:56:21.751Z,12.27
2019-05-17T17:58:50.598Z,11.30
2019-05-17T18:01:19.784Z,12.67
2019-05-17T18:03:48.672Z,12.07
2019-05-17T18:06:18.329Z,12.13
2019-05-17T18:08:47.601Z,12.60
2019-05-17T18:11:16.443Z,12.10
2019-05-17T18:13:45.275Z,11.60
2019-05-17T18:16:14.180Z,11.13
2019-05-17T18:18:43.154Z,13.30
2019-05-17T18:21:12.114Z,13.23
2019-05-17T18:23:40.963Z,13.50
2019-05-17T18:26:09.783Z,13.40
2019-05-17T18:28:38.564Z,13.80
2019-05-17T18:31:07.770Z,14.50
2019-05-17T18:33:36.837Z,14.03
2019-05-17T18:36:05.866Z,14.43
2019-05-17T18:38:36.769Z,13.93
2019-05-17T18:41:06.550Z,12.40
2019-05-17T18:43:35.413Z,16.33
2019-05-17T18:46:04.407Z,12.73
2019-05-17T18:48:35.115Z,13.80
2019-05-17T18:51:03.965Z,12.03
2019-05-17T18:53:32.747Z,13.43
2019-05-17T18:56:01.566Z,12.80
2019-05-17T18:58:30.421Z,12.40
2019-05-17T19:00:59.332Z,12.60
2019-05-17T19:03:28.502Z,12.23
2019-05-17T19:05:57.354Z,12.10
2019-05-17T19:08:26.303Z,11.00
2019-05-17T19:10:55.113Z,12.30
2019-05-17T19:13:24.205Z,11.07
2019-05-17T19:15:52.980Z,11.70
2019-05-17T19:18:21.819Z,11.60
2019-05-17T19:20:50.575Z,12.80
2019-05-17T19:23:19.370Z,13.80
2019-05-17T19:25:48.140Z,12.83
2019-05-17T19:28:17.053Z,11.90
2019-05-17T19:30:45.967Z,11.57
2019-05-17T19:33:14.879Z,10.70
2019-05-17T19:35:43.812Z,10.70
2019-05-17T19:38:12.736Z,11.37
2019-05-17T19:40:41.665Z,11.10
2019-05-17T19:43:10.628Z,10.20
2019-05-17T19:45:39.473Z,11.50
2019-05-17T19:48:08.373Z,11.10
2019-05-17T19:50:37.163Z,10.60
2019-05-17T19:53:05.958Z,11.33
2019-05-17T19:55:34.855Z,10.83
2019-05-17T19:58:03.751Z,10.97
2019-05-17T20:00:32.529Z,11.67
2019-05-17T20:03:01.779Z,11.73
2019-05-17T20:05:30.670Z,10.97
2019-05-17T20:07:59.897Z,11.20
2019-05-17T20:10:29.556Z,13.00
2019-05-17T20:12:58.461Z,18.60
2019-05-17T20:15:34.558Z,20.40
2019-05-17T20:18:00.349Z,13.63
2019-05-17T20:20:29.639Z,12.07
2019-05-17T20:22:58.669Z,12.80
2019-05-17T20:25:27.834Z,12.47
2019-05-17T20:27:56.648Z,12.77
2019-05-17T20:30:26.938Z,14.90
2019-05-17T20:32:56.051Z,12.43
2019-05-17T20:35:24.879Z,13.17
2019-05-17T20:37:54.140Z,12.33
2019-05-17T20:40:23.173Z,12.67
2019-05-17T20:42:52.061Z,13.20
2019-05-17T20:45:32.687Z,13.50
2019-05-17T20:47:54.249Z,13.33
2019-05-17T20:50:23.574Z,13.83
2019-05-17T20:52:52.476Z,12.63
2019-05-17T20:55:21.550Z,13.73
2019-05-17T20:57:50.540Z,13.50
2019-05-17T21:00:20.355Z,15.17
2019-05-17T21:02:49.120Z,14.47
2019-05-17T21:05:18.889Z,15.20
2019-05-17T21:07:47.796Z,14.50
2019-05-17T21:10:17.219Z,14.00
2019-05-17T21:12:46.176Z,15.50
2019-05-17T21:15:15.334Z,14.07
2019-05-17T21:17:44.107Z,14.97
2019-05-17T21:20:13.481Z,15.23
2019-05-17T21:22:42.379Z,15.00
2019-05-17T21:25:11.981Z,18.10
2019-05-17T21:27:40.806Z,17.90
2019-05-17T21:30:10.283Z,16.03
2019-05-17T21:32:39.235Z,17.17
2019-05-17T21:35:08.488Z,16.73
2019-05-17T21:37:37.371Z,15.43
2019-05-17T21:40:08.054Z,18.43
2019-05-17T21:42:36.837Z,16.70
2019-05-17T21:45:07.459Z,16.70
2019-05-17T21:47:36.252Z,17.90
2019-05-17T21:50:06.271Z,16.80
2019-05-17T21:52:35.115Z,16.97
2019-05-17T21:55:04.675Z,17.00
2019-05-17T21:57:33.473Z,18.77
2019-05-17T22:00:02.455Z,18.60
2019-05-17T22:02:31.365Z,18.30
2019-05-17T22:05:00.271Z,18.30
2019-05-17T22:07:29.121Z,18.03
2019-05-17T22:09:58.010Z,19.07
2019-05-17T22:12:26.892Z,18.93
2019-05-17T22:14:55.720Z,18.00
2019-05-17T22:17:24.535Z,18.93
2019-05-17T22:19:53.482Z,19.93
2019-05-17T22:22:22.326Z,20.17
2019-05-17T22:24:51.174Z,20.10
2019-05-17T22:27:20.074Z,20.47
2019-05-17T22:29:48.929Z,19.30
2019-05-17T22:32:17.703Z,20.17
2019-05-17T22:34:46.636Z,20.63
2019-05-17T22:37:17.536Z,19.37
2019-05-17T22:39:46.290Z,18.60
2019-05-17T22:42:15.123Z,20.90
2019-05-17T22:44:43.942Z,19.37
2019-05-17T22:47:12.824Z,19.80
2019-05-17T22:49:41.553Z,19.73
2019-05-17T22:52:10.289Z,21.37
2019-05-17T22:54:39.014Z,19.80
2019-05-17T22:57:07.890Z,20.00
2019-05-17T22:59:36.675Z,21.77
2019-05-17T23:02:05.539Z,20.33
2019-05-17T23:04:34.356Z,21.07
2019-05-17T23:07:03.149Z,19.80
2019-05-17T23:09:32.004Z,20.87
2019-05-17T23:12:00.864Z,21.13
2019-05-17T23:14:29.629Z,24.67
2019-05-17T23:16:58.317Z,23.40
2019-05-17T23:19:27.129Z,21.70
2019-05-17T23:21:55.801Z,21.90
2019-05-17T23:24:24.648Z,22.30
2019-05-17T23:26:53.323Z,22.13
2019-05-17T23:29:22.103Z,21.63
2019-05-17T23:31:50.937Z,22.97
2019-05-17T23:34:19.893Z,25.93
2019-05-17T23:36:48.591Z,20.63
2019-05-17T23:39:17.535Z,22.60
2019-05-17T23:41:46.217Z,23.00
2019-05-17T23:44:15.017Z,23.30
2019-05-17T23:46:43.776Z,23.90
2019-05-17T23:49:12.588Z,24.80
2019-05-17T23:51:41.466Z,23.40
2019-05-17T23:54:10.128Z,24.43
2019-05-17T23:56:38.857Z,24.60
2019-05-17T23:59:07.661Z,25.20
